Time;durP1;ratioP1;P1;durP2;ratioP2;P2;SDS_P1;SDS_P2;PMS_P1;PMS_P2;Temp;Humidity;BMP_temperature;BMP_pressure;BME280_temperature;BME280_humidity;BME280_pressure;Samples;Min_cycle;Max_cycle;Signal;HPM_P1;HPM_P2
2022/07/12 00:00:52;;;;;;;2.63;2.13;;;;;;;17.07;64.72;97366.78;4901520;29;20066;-78
2022/07/12 00:03:21;;;;;;;3.63;2.10;;;;;;;17.10;64.61;97369.03;4898668;29;20057;-78
2022/07/12 00:05:49;;;;;;;2.40;1.90;;;;;;;17.09;64.10;97362.09;4898524;29;20427;-78
2022/07/12 00:08:16;;;;;;;3.42;2.35;;;;;;;17.06;64.01;97373.88;4898597;29;20144;-77
2022/07/12 00:10:44;;;;;;;2.40;2.20;;;;;;;17.04;63.96;97370.63;4897700;29;20312;-77
2022/07/12 00:13:12;;;;;;;3.78;1.80;;;;;;;17.07;64.52;97369.41;4898354;29;20060;-77
2022/07/12 00:15:39;;;;;;;2.15;1.95;;;;;;;17.11;64.32;97364.56;4898220;29;20080;-78
2022/07/12 00:18:07;;;;;;;6.88;2.10;;;;;;;17.13;64.28;97362.53;4898084;29;20140;-78
2022/07/12 00:20:37;;;;;;;3.83;1.90;;;;;;;17.13;64.34;97365.16;4897804;29;20139;-78
2022/07/12 00:23:05;;;;;;;2.92;2.13;;;;;;;17.15;64.31;97366.56;4897936;29;20408;-78
2022/07/12 00:25:32;;;;;;;3.08;1.80;;;;;;;17.17;64.28;97359.28;4897907;29;20147;-78
2022/07/12 00:28:00;;;;;;;2.55;2.35;;;;;;;17.22;64.66;97366.56;4898125;29;20052;-78
2022/07/12 00:30:27;;;;;;;4.63;2.22;;;;;;;17.24;64.28;97370.59;4897652;29;20052;-77
2022/07/12 00:32:55;;;;;;;3.30;2.38;;;;;;;17.27;64.05;97369.38;4897476;29;20084;-77
2022/07/12 00:35:23;;;;;;;1.92;1.50;;;;;;;17.30;64.49;97367.16;4897743;29;20104;-78
2022/07/12 00:37:51;;;;;;;2.33;2.03;;;;;;;17.35;65.27;97371.81;4897561;29;20496;-78
2022/07/12 00:40:19;;;;;;;4.45;2.00;;;;;;;17.34;64.26;97364.94;4897447;29;20574;-77
2022/07/12 00:42:47;;;;;;;6.10;2.47;;;;;;;17.32;64.16;97366.13;4898039;29;20052;-78
2022/07/12 00:45:15;;;;;;;2.67;2.17;;;;;;;17.28;64.08;97363.91;4897782;29;20590;-78
2022/07/12 00:47:44;;;;;;;3.85;2.40;;;;;;;17.28;64.31;97365.75;4897816;29;20139;-78
2022/07/12 00:50:14;;;;;;;2.35;2.15;;;;;;;17.24;64.40;97365.34;4897307;29;20060;-78
2022/07/12 00:52:44;;;;;;;2.03;1.83;;;;;;;17.19;64.27;97370.44;4897377;29;20146;-78
2022/07/12 00:55:13;;;;;;;3.72;2.20;;;;;;;17.17;64.73;97363.75;4897444;29;20135;-78
2022/07/12 00:57:43;;;;;;;2.65;2.17;;;;;;;17.12;64.63;97363.53;4897514;29;20072;-78
2022/07/12 01:00:13;;;;;;;2.15;1.90;;;;;;;17.07;64.95;97353.59;4897181;29;20100;-78
2022/07/12 01:02:41;;;;;;;2.40;2.15;;;;;;;17.02;65.03;97356.84;4897161;29;20583;-78
2022/07/12 01:05:09;;;;;;;1.88;1.75;;;;;;;17.04;65.24;97361.91;4897197;29;20075;-78
2022/07/12 01:07:39;;;;;;;2.45;1.63;;;;;;;17.09;65.79;97362.09;4897235;29;20519;-78
2022/07/12 01:10:08;;;;;;;4.35;2.33;;;;;;;17.11;65.24;97346.91;4897373;29;20143;-78
2022/07/12 01:12:37;;;;;;;3.65;2.38;;;;;;;17.10;65.04;97353.19;4897298;29;20053;-79
2022/07/12 01:15:07;;;;;;;2.97;2.47;;;;;;;17.05;65.14;97356.44;4897021;29;20053;-78
2022/07/12 01:17:34;;;;;;;2.22;2.03;;;;;;;17.01;65.33;97349.13;4897001;29;20059;-78
2022/07/12 01:20:05;;;;;;;2.03;1.77;;;;;;;16.99;65.12;97351.16;4896876;29;20135;-78
2022/07/12 01:22:35;;;;;;;2.95;2.30;;;;;;;17.00;65.68;97345.69;4896795;29;20049;-78
2022/07/12 01:25:06;;;;;;;1.67;1.58;;;;;;;17.04;66.07;97346.09;4897052;29;20131;-78
2022/07/12 01:27:34;;;;;;;2.75;1.77;;;;;;;17.06;65.84;97344.06;4897012;29;20135;-78
2022/07/12 01:30:03;;;;;;;2.80;1.70;;;;;;;17.03;65.49;97347.94;4896659;29;20052;-78
2022/07/12 01:32:31;;;;;;;3.83;2.50;;;;;;;17.03;65.53;97352.38;4897286;29;20052;-78
2022/07/12 01:35:02;;;;;;;2.97;2.35;;;;;;;17.02;65.87;97348.94;4896782;29;20426;-78
2022/07/12 01:37:33;;;;;;;3.63;2.08;;;;;;;17.05;66.98;97351.19;4897145;29;20493;-78
2022/07/12 01:40:02;;;;;;;3.35;3.03;;;;;;;17.04;65.53;97354.00;4892165;29;20052;-78
2022/07/12 01:42:31;;;;;;;3.50;2.00;;;;;;;16.98;65.57;97352.19;4900540;29;20135;-78
2022/07/12 01:45:00;;;;;;;2.05;1.63;;;;;;;16.93;65.54;97357.28;4899973;29;20059;-78
2022/07/12 01:47:29;;;;;;;2.22;1.92;;;;;;;16.87;65.70;97353.59;4898938;29;20426;-78
2022/07/12 01:49:57;;;;;;;1.98;1.67;;;;;;;16.85;65.88;97356.44;4896934;29;20163;-76
2022/07/12 01:52:25;;;;;;;1.85;1.50;;;;;;;16.86;66.14;97365.19;4896890;29;20052;-78
2022/07/12 01:54:53;;;;;;;2.15;2.03;;;;;;;16.88;66.94;97349.97;4896706;29;20438;-78
2022/07/12 01:57:22;;;;;;;2.40;2.20;;;;;;;16.93;67.90;97357.28;4896676;29;20143;-78
2022/07/12 01:59:51;;;;;;;3.08;2.70;;;;;;;16.96;68.35;97357.66;4896744;29;20056;-77
2022/07/12 02:02:19;;;;;;;4.80;3.42;;;;;;;16.98;67.22;97357.47;4896561;29;20052;-78
2022/07/12 02:04:46;;;;;;;4.38;3.10;;;;;;;16.98;67.63;97354.81;4896799;29;20045;-78
2022/07/12 02:07:14;;;;;;;3.22;3.00;;;;;;;16.99;67.70;97359.06;4896674;29;20063;-78
2022/07/12 02:09:41;;;;;;;4.05;3.65;;;;;;;17.01;67.29;97359.69;4896764;29;20086;-78
2022/07/12 02:12:09;;;;;;;3.40;2.97;;;;;;;16.96;66.33;97357.66;4896762;29;20136;-78
2022/07/12 02:14:37;;;;;;;3.33;1.90;;;;;;;16.93;66.15;97352.00;4896681;29;20422;-78
2022/07/12 02:17:06;;;;;;;3.00;2.20;;;;;;;16.88;66.22;97356.06;4896620;29;20079;-78
2022/07/12 02:19:33;;;;;;;2.38;2.17;;;;;;;16.86;66.06;97355.44;4896675;29;20060;-77
2022/07/12 02:22:01;;;;;;;7.50;2.92;;;;;;;16.83;66.08;97358.47;4896363;29;20079;-78
2022/07/12 02:24:28;;;;;;;2.67;2.38;;;;;;;16.80;65.96;97355.44;4896546;29;20148;-78
2022/07/12 02:26:56;;;;;;;3.10;2.45;;;;;;;16.76;66.24;97355.00;4896691;29;20147;-78
2022/07/12 02:29:23;;;;;;;2.38;2.17;;;;;;;16.73;66.10;97355.41;4899978;29;20103;-78
2022/07/12 02:31:51;;;;;;;2.25;2.05;;;;;;;16.72;66.30;97350.34;4899623;29;20056;-78
2022/07/12 02:34:20;;;;;;;4.53;2.22;;;;;;;16.73;66.11;97358.03;4900219;29;20059;-78
2022/07/12 02:36:48;;;;;;;2.25;2.00;;;;;;;16.69;66.06;97352.34;4899806;29;20156;-78
2022/07/12 02:39:15;;;;;;;2.38;2.15;;;;;;;16.67;65.97;97349.13;4900136;29;20056;-78
2022/07/12 02:41:43;;;;;;;2.03;1.67;;;;;;;16.68;66.23;97349.91;4899626;29;20052;-78
2022/07/12 02:44:10;;;;;;;1.98;1.77;;;;;;;16.65;66.14;97347.69;4899865;29;20055;-78
2022/07/12 02:46:38;;;;;;;2.03;1.70;;;;;;;16.60;66.41;97350.13;4899897;29;20428;-77
2022/07/12 02:49:06;;;;;;;2.20;1.90;;;;;;;16.54;66.59;97343.03;4899791;29;20143;-78
2022/07/12 02:51:35;;;;;;;2.45;2.22;;;;;;;16.50;66.59;97342.63;4899220;29;20062;-78
2022/07/12 02:54:02;;;;;;;3.28;1.42;;;;;;;16.47;66.61;97351.72;4892161;29;20440;-78
2022/07/12 02:56:30;;;;;;;2.95;2.00;;;;;;;16.46;66.74;97339.59;4899844;29;20519;-78
2022/07/12 02:58:57;;;;;;;2.53;2.05;;;;;;;16.46;66.66;97347.50;4899572;29;20088;-78
2022/07/12 03:01:25;;;;;;;1.88;1.77;;;;;;;16.47;66.92;97346.47;4899466;29;20527;-78
2022/07/12 03:03:52;;;;;;;1.88;1.55;;;;;;;16.50;67.16;97349.72;4899567;29;20056;-78
2022/07/12 03:06:20;;;;;;;2.35;1.90;;;;;;;16.48;66.61;97347.28;4899890;29;20128;-78
2022/07/12 03:08:50;;;;;;;1.77;1.30;;;;;;;16.44;66.45;97344.25;4899546;29;20049;-78
2022/07/12 03:11:17;;;;;;;1.95;1.80;;;;;;;16.43;66.53;97350.50;4899307;29;20077;-78
2022/07/12 03:13:45;;;;;;;1.48;1.38;;;;;;;16.44;67.43;97351.31;4899297;29;20063;-78
2022/07/12 03:16:13;;;;;;;1.63;1.30;;;;;;;16.48;67.32;97348.06;4899008;29;20059;-78
2022/07/12 03:18:41;;;;;;;1.83;1.60;;;;;;;16.46;66.62;97350.13;4899319;29;20052;-77
2022/07/12 03:21:09;;;;;;;1.58;1.40;;;;;;;16.41;66.31;97354.34;4899037;29;20472;-78
2022/07/12 03:23:36;;;;;;;2.92;1.50;;;;;;;16.35;66.41;97353.31;4907945;29;20131;-77
2022/07/12 03:26:07;;;;;;;4.57;2.08;;;;;;;16.32;66.50;97363.47;4913241;29;20056;-78
2022/07/12 03:28:35;;;;;;;2.33;1.88;;;;;;;16.28;66.63;97357.78;4917834;29;20507;-77
2022/07/12 03:31:02;;;;;;;1.80;1.70;;;;;;;16.30;67.36;97358.38;4917662;29;20055;-78
2022/07/12 03:33:30;;;;;;;1.60;1.50;;;;;;;16.36;68.14;97362.06;4917321;29;20063;-78
2022/07/12 03:36:06;;;;;;;1.92;1.80;;;;;;;16.34;66.85;97375.41;4912642;29;20134;-77
2022/07/12 03:38:35;;;;;;;3.30;1.83;;;;;;;16.28;66.60;97363.03;4909758;29;20056;-77
2022/07/12 03:41:03;;;;;;;3.47;1.52;;;;;;;16.21;66.35;97373.56;4917410;29;20091;-78
2022/07/12 03:43:34;;;;;;;2.97;1.70;;;;;;;16.11;66.38;97378.38;4915606;29;20048;-78
2022/07/12 03:46:01;;;;;;;3.80;1.63;;;;;;;16.02;66.37;97372.47;4895304;29;20044;-78
2022/07/12 03:48:29;;;;;;;1.90;1.73;;;;;;;15.96;66.68;97375.91;4917232;29;20490;-78
2022/07/12 03:50:56;;;;;;;2.20;1.70;;;;;;;15.92;66.80;97381.75;4917203;29;20063;-77
2022/07/12 03:53:24;;;;;;;3.47;1.75;;;;;;;15.89;66.96;97377.69;4912904;29;20139;-77
2022/07/12 03:55:51;;;;;;;2.25;2.08;;;;;;;15.88;66.99;97383.97;4915563;29;20045;-77
2022/07/12 03:58:19;;;;;;;2.42;2.13;;;;;;;15.85;67.01;97381.72;4915373;29;20055;-77
2022/07/12 04:00:48;;;;;;;2.30;2.10;;;;;;;15.79;67.13;97387.78;4915292;29;20148;-77
2022/07/12 04:03:15;;;;;;;2.90;2.03;;;;;;;15.72;67.03;97387.75;4914948;29;20541;-77
2022/07/12 04:05:43;;;;;;;3.97;2.45;;;;;;;15.67;67.10;97395.34;4904643;29;20044;-77
2022/07/12 04:08:10;;;;;;;2.47;2.28;;;;;;;15.63;67.46;97386.22;4914747;29;20139;-77
2022/07/12 04:10:38;;;;;;;2.90;2.47;;;;;;;15.58;67.37;97386.81;4906826;29;20052;-77
2022/07/12 04:13:05;;;;;;;2.33;2.00;;;;;;;15.56;67.67;97391.44;4918466;29;20059;-77
2022/07/12 04:15:33;;;;;;;2.50;2.25;;;;;;;15.55;67.70;97387.22;4918530;29;20056;-78
2022/07/12 04:18:02;;;;;;;2.83;2.40;;;;;;;15.52;67.86;97392.84;4918053;29;20498;-77
2022/07/12 04:20:30;;;;;;;3.78;2.42;;;;;;;15.50;67.84;97384.34;4917626;29;20100;-77
2022/07/12 04:22:57;;;;;;;2.65;2.45;;;;;;;15.48;67.79;97396.88;4917154;29;20423;-77
2022/07/12 04:25:25;;;;;;;2.50;2.30;;;;;;;15.45;67.98;97386.75;4916828;29;20517;-77
2022/07/12 04:27:55;;;;;;;4.30;2.30;;;;;;;15.42;68.00;97392.41;4916913;29;20618;-77
2022/07/12 04:30:22;;;;;;;3.05;2.30;;;;;;;15.39;68.21;97392.75;4916223;29;20479;-78
2022/07/12 04:32:50;;;;;;;2.90;1.80;;;;;;;15.37;68.18;97397.41;4916779;29;20052;-77
2022/07/12 04:35:19;;;;;;;1.60;1.50;;;;;;;15.39;68.58;97403.28;4916461;29;20697;-78
2022/07/12 04:37:47;;;;;;;1.48;1.38;;;;;;;15.40;68.75;97404.91;4916436;29;20139;-77
2022/07/12 04:40:14;;;;;;;2.35;1.70;;;;;;;15.43;68.40;97405.31;4916135;29;20487;-77
2022/07/12 04:42:42;;;;;;;1.95;1.85;;;;;;;15.48;68.42;97401.31;4916834;29;20134;-77
2022/07/12 04:45:10;;;;;;;2.30;1.85;;;;;;;15.52;68.47;97405.19;4916561;29;20135;-77
2022/07/12 04:47:37;;;;;;;2.85;1.38;;;;;;;15.54;68.38;97411.88;4916175;29;20495;-77
2022/07/12 04:50:06;;;;;;;2.03;1.50;;;;;;;15.57;68.28;97408.88;4916064;29;20058;-77
2022/07/12 04:52:36;;;;;;;1.50;1.23;;;;;;;15.59;68.18;97417.38;4916196;29;20063;-77
2022/07/12 04:55:03;;;;;;;1.45;1.35;;;;;;;15.61;68.15;97418.00;4915985;29;20471;-77
2022/07/12 04:57:31;;;;;;;1.80;1.40;;;;;;;15.64;68.14;97420.22;4915723;29;20416;-77
2022/07/12 04:59:58;;;;;;;2.97;1.27;;;;;;;15.68;67.97;97417.19;4920171;29;20055;-76
2022/07/12 05:02:26;;;;;;;1.48;1.17;;;;;;;15.69;67.86;97424.91;4919818;29;20080;-77
2022/07/12 05:04:54;;;;;;;2.00;1.80;;;;;;;15.71;68.21;97427.34;4916532;29;20570;-81
2022/07/12 05:07:21;;;;;;;2.72;1.48;;;;;;;15.74;68.31;97416.47;4917366;29;20083;-74
2022/07/12 05:09:51;;;;;;;1.98;1.75;;;;;;;15.81;69.38;97420.78;4916224;29;20047;-75
2022/07/12 05:12:18;;;;;;;2.60;1.70;;;;;;;15.91;69.21;97427.50;4915834;29;20054;-75
2022/07/12 05:14:46;;;;;;;4.93;2.40;;;;;;;15.99;68.80;97430.75;4915546;29;20052;-75
2022/07/12 05:17:13;;;;;;;3.70;2.58;;;;;;;16.06;68.33;97423.72;4910816;29;20083;-79
2022/07/12 05:19:41;;;;;;;4.30;3.13;;;;;;;16.09;67.96;97413.78;4907338;29;20056;-79
2022/07/12 05:22:09;;;;;;;4.95;3.80;;;;;;;16.10;67.83;97426.75;4906340;29;20233;-80
2022/07/12 05:24:36;;;;;;;3.65;3.35;;;;;;;16.14;67.90;97424.56;4907683;29;20056;-80
2022/07/12 05:27:05;;;;;;;6.00;3.70;;;;;;;16.17;68.12;97426.78;4914727;29;20410;-80
2022/07/12 05:29:34;;;;;;;4.78;3.83;;;;;;;16.23;68.24;97433.91;4914609;29;20135;-80
2022/07/12 05:32:01;;;;;;;4.97;3.92;;;;;;;16.28;67.92;97434.13;4915546;29;20062;-80
2022/07/12 05:34:38;;;;;;;5.63;3.53;;;;;;;16.36;68.77;97430.50;4912982;29;20463;-80
2022/07/12 05:37:05;;;;;;;6.18;3.90;;;;;;;16.44;69.41;97430.31;4899879;29;20135;-79
2022/07/12 05:39:33;;;;;;;6.68;4.20;;;;;;;16.53;69.68;97430.94;4904050;29;20076;-80
2022/07/12 05:42:01;;;;;;;7.80;4.88;;;;;;;16.60;69.74;97437.06;4915150;29;20143;-79
2022/07/12 05:44:29;;;;;;;6.43;4.78;;;;;;;16.63;68.46;97436.66;4916570;29;20074;-77
2022/07/12 05:46:57;;;;;;;8.18;4.65;;;;;;;16.64;68.20;97433.81;4915677;29;20076;-78
2022/07/12 05:49:25;;;;;;;4.40;4.00;;;;;;;16.67;67.62;97438.69;4915648;29;20079;-79
2022/07/12 05:54:37;;;;;;;5.15;4.40;;;;;;;16.75;68.91;97436.84;4905324;29;20052;-75
2022/07/12 05:57:05;;;;;;;7.03;4.30;;;;;;;16.80;68.06;97437.94;4915191;29;20052;-78
2022/07/12 05:59:36;;;;;;;4.70;3.75;;;;;;;16.86;69.44;97452.94;4916408;29;20087;-80
2022/07/12 06:02:04;;;;;;;4.82;3.53;;;;;;;16.91;69.38;97441.00;4912762;29;20131;-74
2022/07/12 06:04:32;;;;;;;5.07;3.97;;;;;;;16.96;69.75;97438.56;4915059;29;20056;-73
2022/07/12 06:06:59;;;;;;;5.40;3.42;;;;;;;16.99;69.60;97444.25;4916133;29;20048;-74
2022/07/12 06:09:27;;;;;;;7.65;3.92;;;;;;;17.03;69.51;97449.91;4918914;29;20142;-76
2022/07/12 06:11:55;;;;;;;5.30;4.05;;;;;;;17.07;67.99;97448.50;4900117;29;20226;-75
2022/07/12 06:14:22;;;;;;;7.47;3.85;;;;;;;17.09;67.38;97452.53;4908839;29;20142;-73
2022/07/12 06:16:51;;;;;;;6.15;3.67;;;;;;;17.15;67.58;97450.94;4918773;29;20058;-78
2022/07/12 06:19:18;;;;;;;4.22;3.58;;;;;;;17.20;68.23;97453.75;4914668;29;20052;-79
2022/07/12 06:21:46;;;;;;;3.88;3.38;;;;;;;17.24;68.32;97452.34;4903567;29;20051;-76
2022/07/12 06:24:13;;;;;;;5.57;3.17;;;;;;;17.28;66.82;97450.13;4918992;29;20135;-76
2022/07/12 06:26:41;;;;;;;7.15;3.10;;;;;;;17.30;67.29;97448.91;4918937;29;20052;-76
2022/07/12 06:29:08;;;;;;;7.25;3.03;;;;;;;17.36;66.90;97446.44;4918766;29;20147;-76
2022/07/12 06:31:36;;;;;;;5.05;3.17;;;;;;;17.39;66.70;97449.50;4918729;29;20429;-76
2022/07/12 06:34:05;;;;;;;4.03;2.97;;;;;;;17.46;67.11;97454.78;4918748;29;20047;-76
2022/07/12 06:36:32;;;;;;;7.00;3.17;;;;;;;17.51;67.84;97454.97;4918309;29;20056;-76
2022/07/12 06:39:00;;;;;;;5.18;2.72;;;;;;;17.56;66.71;97452.53;4918415;29;20058;-76
2022/07/12 06:41:29;;;;;;;4.60;2.75;;;;;;;17.61;66.58;97454.56;4916104;29;20055;-78
2022/07/12 06:49:47;;;;;;;5.43;2.28;;;;;;;17.82;65.74;97461.44;5481390;23;20317;-79
2022/07/12 08:06:23;;;;;;;1.45;0.10;;;;;;;19.82;54.53;97498.13;6053733;23;20033;-76
2022/07/12 08:08:51;;;;;;;0.30;0.25;;;;;;;19.90;54.32;97505.00;4975046;28;20058;-76
2022/07/12 08:11:38;;;;;;;3.58;0.70;;;;;;;19.99;54.63;97500.22;4974227;28;20118;-76
2022/07/12 08:14:07;;;;;;;0.73;0.13;;;;;;;20.08;53.11;97507.66;4974757;28;20055;-76
2022/07/12 08:16:36;;;;;;;0.20;0.10;;;;;;;20.19;53.71;97492.06;4971626;28;20134;-76
2022/07/12 08:19:04;;;;;;;1.65;0.13;;;;;;;20.28;52.60;97491.53;4955416;29;20051;-76
2022/07/12 08:21:40;;;;;;;0.60;0.20;;;;;;;20.34;51.78;97497.78;5000587;23;20106;-80
2022/07/12 08:24:11;;;;;;;2.28;0.10;;;;;;;20.35;50.85;97497.56;5019800;28;20094;-80
2022/07/12 08:32:21;;;;;;;0.38;0.38;;;;;;;20.42;50.25;97496.66;4738690;26;20060;-80
2022/07/12 08:35:01;;;;;;;0.10;0.10;;;;;;;20.48;50.76;97493.13;5000390;28;20035;-81
2022/07/12 08:37:55;;;;;;;0.20;0.20;;;;;;;20.55;50.69;97494.69;4999711;28;20059;-81
2022/07/12 08:40:28;;;;;;;0.10;0.10;;;;;;;20.61;50.51;97494.84;4999965;28;20062;-81
2022/07/12 08:43:00;;;;;;;0.10;0.10;;;;;;;20.67;50.74;97494.75;4999879;28;20030;-81
2022/07/12 08:45:33;;;;;;;0.75;0.30;;;;;;;20.74;50.14;97489.34;4999967;28;20078;-79
2022/07/12 08:48:03;;;;;;;0.38;0.20;;;;;;;20.80;50.42;97491.13;5000107;28;20031;-80
2022/07/12 08:50:39;;;;;;;0.10;0.10;;;;;;;20.88;49.93;97496.09;4984034;28;20095;-80
2022/07/12 08:53:21;;;;;;;0.85;0.20;;;;;;;21.03;49.64;97492.22;4984252;28;20035;-81
2022/07/12 08:55:52;;;;;;;3.58;0.10;;;;;;;21.14;49.21;97488.78;4999839;28;20041;-81
2022/07/12 08:58:26;;;;;;;0.10;0.10;;;;;;;21.20;49.45;97498.47;4999777;28;20172;-80
2022/07/12 09:01:10;;;;;;;0.88;0.20;;;;;;;21.23;48.88;97502.53;4999593;28;20030;-80
2022/07/12 09:03:44;;;;;;;0.10;0.10;;;;;;;21.25;48.32;97506.56;4999756;28;20031;-79
2022/07/12 09:06:14;;;;;;;0.10;0.10;;;;;;;21.26;48.51;97508.19;4999766;28;20039;-79
2022/07/12 09:08:51;;;;;;;0.10;0.10;;;;;;;21.27;48.68;97507.16;4999897;28;20035;-80
2022/07/12 09:11:23;;;;;;;0.10;0.08;;;;;;;21.28;48.96;97508.78;4999548;28;20049;-80
2022/07/12 09:13:55;;;;;;;0.10;0.10;;;;;;;21.30;48.49;97505.91;4999565;28;20031;-81
2022/07/12 09:16:27;;;;;;;0.63;0.10;;;;;;;21.31;48.32;97510.97;4999653;28;20073;-80
2022/07/12 09:19:16;;;;;;;0.17;0.17;;;;;;;21.37;49.37;97515.38;4999373;28;20094;-79
2022/07/12 09:21:52;;;;;;;0.60;0.10;;;;;;;21.51;48.93;97520.50;4999541;28;20055;-81
2022/07/12 09:24:26;;;;;;;0.60;0.10;;;;;;;21.62;48.47;97510.91;4999594;28;20045;-80
2022/07/12 09:27:00;;;;;;;0.10;0.10;;;;;;;21.69;48.31;97507.13;4999651;28;20042;-80
2022/07/12 09:29:32;;;;;;;2.08;0.13;;;;;;;21.78;48.02;97502.28;4999321;28;20066;-80
2022/07/12 09:37:52;;;;;;;0.20;0.15;;;;;;;21.92;47.06;97508.16;4999321;28;20090;-80
2022/07/12 09:40:24;;;;;;;0.35;0.35;;;;;;;21.93;47.05;97507.09;4999325;28;20047;-81
2022/07/12 09:42:54;;;;;;;0.50;0.15;;;;;;;21.95;46.74;97513.00;5001471;28;20041;-80
2022/07/12 09:45:24;;;;;;;0.20;0.20;;;;;;;21.96;47.02;97511.97;5003359;28;20035;-80
2022/07/12 09:47:55;;;;;;;0.40;0.10;;;;;;;21.99;46.96;97517.59;5003457;28;20031;-80
2022/07/12 09:50:24;;;;;;;0.10;0.10;;;;;;;22.07;46.96;97510.34;5003210;28;20070;-80
2022/07/12 09:53:00;;;;;;;0.30;0.10;;;;;;;22.19;47.90;97517.25;5002879;28;20066;-81
2022/07/12 09:55:40;;;;;;;0.10;0.10;;;;;;;22.31;46.23;97514.59;5003385;28;20055;-79
2022/07/12 09:58:28;;;;;;;0.45;0.10;;;;;;;22.45;46.78;97509.03;5002874;28;20044;-80
2022/07/12 10:01:03;;;;;;;0.20;0.20;;;;;;;22.55;47.02;97510.03;5002252;28;20043;-80
2022/07/12 10:03:51;;;;;;;0.35;0.10;;;;;;;22.60;46.25;97512.78;5002659;28;20106;-80
2022/07/12 10:06:39;;;;;;;0.10;0.10;;;;;;;22.68;47.00;97508.94;1344215;26;20863;-79
2022/07/12 10:09:15;;;;;;;0.10;0.10;;;;;;;22.76;45.43;97518.38;4983096;28;20086;-80
2022/07/12 10:11:46;;;;;;;0.68;0.20;;;;;;;22.78;45.32;97519.78;4992253;28;20035;-79
2022/07/12 10:14:36;;;;;;;0.10;0.03;;;;;;;22.83;45.08;97508.44;5002617;28;20034;-79
2022/07/12 10:17:10;;;;;;;0.60;0.10;;;;;;;22.84;44.77;97505.50;5002594;28;20034;-80
2022/07/12 10:19:38;;;;;;;0.43;0.17;;;;;;;22.86;44.26;97504.50;5005653;23;20719;-76
2022/07/12 10:22:07;;;;;;;0.20;0.10;;;;;;;22.89;45.07;97504.00;4976333;28;20078;-76
2022/07/12 10:24:49;;;;;;;0.10;0.10;;;;;;;22.97;44.31;97506.28;4977017;28;20141;-75
2022/07/12 10:27:34;;;;;;;0.15;0.00;;;;;;;23.01;45.04;97502.94;4976729;28;20074;-76
2022/07/12 10:30:17;;;;;;;0.28;0.13;;;;;;;23.03;45.26;97500.84;4976965;28;20105;-76
2022/07/12 10:32:46;;;;;;;0.35;0.20;;;;;;;23.06;44.59;97504.06;4976802;28;20050;-76
2022/07/12 10:35:15;;;;;;;2.25;0.30;;;;;;;23.03;44.44;97495.50;4976790;28;20190;-76
2022/07/12 10:38:02;;;;;;;8.23;0.40;;;;;;;23.07;44.48;97495.84;4976485;28;20061;-76
2022/07/12 10:40:35;;;;;;;2.63;0.20;;;;;;;23.09;44.31;97499.09;4976548;28;20051;-76
2022/07/12 10:46:27;;;;;;;0.10;0.10;;;;;;;23.13;44.27;97494.06;4949455;28;20158;-76
2022/07/12 10:49:26;;;;;;;1.00;0.15;;;;;;;23.19;44.71;97499.25;4976543;28;20053;-77
2022/07/12 10:52:16;;;;;;;0.15;0.08;;;;;;;23.28;44.52;97491.66;4969775;28;20046;-77
2022/07/12 10:55:08;;;;;;;0.17;0.10;;;;;;;23.36;43.96;97488.59;4983004;28;20039;-76
2022/07/12 10:57:39;;;;;;;0.28;0.28;;;;;;;23.44;44.02;97496.19;4997460;28;20115;-76
2022/07/12 11:00:09;;;;;;;0.77;0.10;;;;;;;23.50;43.74;97498.94;4995619;28;20057;-76
2022/07/12 11:02:38;;;;;;;0.00;0.00;;;;;;;23.52;43.15;97496.84;4994606;28;20051;-77
2022/07/12 11:05:06;;;;;;;0.00;0.00;;;;;;;23.56;43.80;97488.13;4985575;28;20085;-76
2022/07/12 11:07:34;;;;;;;0.03;0.00;;;;;;;23.61;43.36;97490.88;4977954;28;20134;-76
2022/07/12 11:10:02;;;;;;;0.85;0.10;;;;;;;23.64;42.51;97490.38;4976802;28;20081;-77
2022/07/12 11:12:29;;;;;;;0.20;0.20;;;;;;;23.67;41.97;97489.06;4977201;28;20065;-76
2022/07/12 11:14:59;;;;;;;0.20;0.10;;;;;;;23.70;41.22;97482.44;4976940;28;20085;-77
2022/07/12 11:17:31;;;;;;;0.43;0.10;;;;;;;23.75;42.11;97486.03;4976897;28;20146;-77
2022/07/12 11:20:08;;;;;;;0.23;0.10;;;;;;;23.82;42.62;97486.66;4976844;28;20141;-77
2022/07/12 11:22:36;;;;;;;1.95;0.05;;;;;;;23.86;42.03;97481.66;4976042;28;20834;-76
2022/07/12 11:25:06;;;;;;;0.95;0.10;;;;;;;23.89;41.67;97480.34;4976192;28;20133;-77
2022/07/12 11:27:39;;;;;;;0.10;0.10;;;;;;;23.90;41.85;97476.63;4975932;28;20086;-76
2022/07/12 11:30:08;;;;;;;0.20;0.20;;;;;;;23.91;41.45;97478.25;4975545;28;20130;-76
2022/07/12 11:32:39;;;;;;;0.10;0.10;;;;;;;23.92;41.98;97471.84;4975780;28;20051;-77
2022/07/12 11:35:20;;;;;;;0.10;0.00;;;;;;;23.98;42.31;97478.88;4977059;28;20129;-77
2022/07/12 11:37:50;;;;;;;0.20;0.03;;;;;;;24.04;42.07;97477.91;4976021;28;20051;-77
2022/07/12 11:40:22;;;;;;;1.30;0.00;;;;;;;24.09;42.02;97472.63;4975680;28;20051;-76
2022/07/12 11:42:54;;;;;;;0.30;0.20;;;;;;;24.14;41.57;97477.22;4976069;28;20078;-77
2022/07/12 11:45:22;;;;;;;0.17;0.10;;;;;;;24.16;41.03;97475.94;4975933;28;20062;-76
2022/07/12 11:47:52;;;;;;;0.30;0.10;;;;;;;24.17;41.51;97472.19;4975759;28;20082;-77
2022/07/12 11:50:19;;;;;;;0.13;0.10;;;;;;;24.21;41.47;97475.97;4975386;28;20082;-77
2022/07/12 11:52:47;;;;;;;1.10;0.10;;;;;;;24.25;41.36;97465.63;4975501;28;20055;-76
2022/07/12 11:55:15;;;;;;;0.82;0.43;;;;;;;24.31;42.03;97467.28;4975421;28;20090;-76
2022/07/12 11:57:43;;;;;;;0.75;0.20;;;;;;;24.35;40.78;97464.94;4975739;28;20146;-76
2022/07/12 12:00:19;;;;;;;0.13;0.10;;;;;;;24.37;40.62;97465.50;4974984;28;20050;-78
2022/07/12 12:02:47;;;;;;;0.63;0.13;;;;;;;24.40;40.35;97465.00;4975100;28;20102;-77
2022/07/12 12:05:17;;;;;;;0.13;0.10;;;;;;;24.39;39.76;97469.53;4974748;28;20050;-76
2022/07/12 12:07:45;;;;;;;0.20;0.20;;;;;;;24.38;40.56;97473.25;4975677;28;20085;-77
2022/07/12 12:10:19;;;;;;;0.17;0.10;;;;;;;24.39;41.39;97466.06;4974713;28;20057;-76
2022/07/12 12:12:49;;;;;;;0.05;0.03;;;;;;;24.40;40.59;97467.66;4988521;28;20051;-75
2022/07/12 12:15:19;;;;;;;6.28;0.60;;;;;;;24.44;40.48;97474.91;4993172;28;20058;-77
2022/07/12 12:17:52;;;;;;;4.63;0.45;;;;;;;24.48;40.52;97472.59;4984877;28;20501;-75
2022/07/12 12:20:23;;;;;;;0.20;0.13;;;;;;;24.50;38.51;97470.47;4974602;28;20051;-75
2022/07/12 12:22:53;;;;;;;4.63;0.30;;;;;;;24.53;38.94;97469.16;4975271;28;20480;-75
2022/07/12 12:25:22;;;;;;;0.47;0.10;;;;;;;24.56;38.95;97458.81;4975321;28;20058;-75
2022/07/12 12:27:54;;;;;;;0.10;0.10;;;;;;;24.61;38.94;97461.53;4976499;28;20571;-76
2022/07/12 12:30:50;;;;;;;0.10;0.08;;;;;;;24.65;39.76;97451.97;4975843;28;20057;-75
2022/07/12 12:33:37;;;;;;;0.05;0.05;;;;;;;24.66;39.48;97456.25;4975363;28;20050;-76
2022/07/12 12:36:17;;;;;;;0.20;0.10;;;;;;;24.69;39.24;97446.94;4975318;28;20050;-78
2022/07/12 12:38:46;;;;;;;0.00;0.00;;;;;;;24.71;39.37;97449.34;4974897;28;20421;-76
2022/07/12 12:41:14;;;;;;;1.35;0.10;;;;;;;24.68;39.05;97439.97;4974500;28;20051;-76
2022/07/12 12:43:42;;;;;;;0.10;0.10;;;;;;;24.67;39.50;97447.19;4974601;28;20468;-76
2022/07/12 12:46:10;;;;;;;0.77;0.10;;;;;;;24.70;39.25;97437.06;4974779;28;20312;-76
2022/07/12 12:48:47;;;;;;;0.40;0.10;;;;;;;24.72;39.08;97434.97;4974619;28;20069;-76
2022/07/12 12:51:16;;;;;;;0.77;0.10;;;;;;;24.71;39.15;97436.00;4974173;28;20081;-75
2022/07/12 12:53:44;;;;;;;0.10;0.10;;;;;;;24.73;39.29;97433.88;4974889;28;20133;-76
2022/07/12 12:56:13;;;;;;;0.38;0.10;;;;;;;24.76;38.80;97436.06;4974588;28;20077;-75
2022/07/12 12:58:42;;;;;;;1.33;0.28;;;;;;;24.77;38.63;97435.00;4974116;28;20057;-76
2022/07/12 13:01:10;;;;;;;5.10;0.25;;;;;;;24.80;38.91;97443.31;4973872;28;20050;-76
2022/07/12 13:03:38;;;;;;;2.30;0.32;;;;;;;24.83;39.03;97440.13;4974335;28;20050;-75
2022/07/12 13:06:05;;;;;;;0.10;0.08;;;;;;;24.83;38.31;97436.66;4974605;28;20078;-75
2022/07/12 13:08:34;;;;;;;0.20;0.20;;;;;;;24.82;37.94;97432.41;4974257;28;20093;-75
2022/07/12 13:11:22;;;;;;;1.95;0.20;;;;;;;24.79;39.09;97440.88;4973936;28;20143;-75
2022/07/12 13:13:49;;;;;;;0.13;0.00;;;;;;;24.80;39.12;97437.19;4974437;28;20118;-76
2022/07/12 13:16:17;;;;;;;0.75;0.10;;;;;;;24.81;38.78;97439.56;4974008;28;20078;-77
2022/07/12 13:18:45;;;;;;;0.10;0.10;;;;;;;24.82;38.37;97440.41;4974186;28;20138;-76
2022/07/12 13:21:12;;;;;;;2.22;0.13;;;;;;;24.84;38.47;97439.09;4973637;28;20047;-75
2022/07/12 13:23:42;;;;;;;0.10;0.10;;;;;;;24.85;37.79;97440.69;4974206;28;20129;-76
2022/07/12 13:26:09;;;;;;;2.38;0.10;;;;;;;24.86;37.63;97436.16;4974172;28;20047;-76